Terminal Aerodrome Forecast
Issued by NWS

Home | Current Version | Previous Version | Text Only | Print | Product List | Glossary On
Versions: 1 2 3 4 5 6 7 8 9 10 11 12 13 14 15 16 17 18 19 20 21 22 23
000
FTUS46 KOTX 051125
TAFPUW
TAF
KPUW 051125Z 0512/0612 26008KT P6SM SKC
     FM051600 22010KT P6SM SCT250
     FM052300 12008KT P6SM BKN100
     FM060600 10008KT P6SM -SN OVC045
     FM060900 10006KT 4SM -SN OVC025=

USA.gov is the U.S. government's official web portal to all federal, state and local government web resources and services.